sensor_id;sensor_type;location;lat;lon;timestamp;temperature;humidity
63435;DHT22;68814;50.872;5.306;2023-08-24T00:01:41;19.30;96.70
63435;DHT22;68814;50.872;5.306;2023-08-24T00:04:07;19.30;97.00
63435;DHT22;68814;50.872;5.306;2023-08-24T00:06:34;19.30;96.90
63435;DHT22;68814;50.872;5.306;2023-08-24T00:08:59;19.20;97.10
63435;DHT22;68814;50.872;5.306;2023-08-24T00:11:25;19.20;97.20
63435;DHT22;68814;50.872;5.306;2023-08-24T00:13:51;19.20;97.10
63435;DHT22;68814;50.872;5.306;2023-08-24T00:16:19;19.20;96.90
63435;DHT22;68814;50.872;5.306;2023-08-24T00:18:46;19.20;96.80
63435;DHT22;68814;50.872;5.306;2023-08-24T00:21:15;19.10;96.60
63435;DHT22;68814;50.872;5.306;2023-08-24T00:23:48;19.10;96.40
63435;DHT22;68814;50.872;5.306;2023-08-24T00:26:14;19.10;96.30
63435;DHT22;68814;50.872;5.306;2023-08-24T00:28:42;19.10;96.20
63435;DHT22;68814;50.872;5.306;2023-08-24T00:31:08;19.10;96.10
63435;DHT22;68814;50.872;5.306;2023-08-24T00:33:34;19.10;96.00
63435;DHT22;68814;50.872;5.306;2023-08-24T00:36:00;19.10;96.00
63435;DHT22;68814;50.872;5.306;2023-08-24T00:38:26;19.10;96.00
63435;DHT22;68814;50.872;5.306;2023-08-24T00:40:52;19.00;95.90
63435;DHT22;68814;50.872;5.306;2023-08-24T00:43:19;19.00;95.90
63435;DHT22;68814;50.872;5.306;2023-08-24T00:45:53;19.00;95.90
63435;DHT22;68814;50.872;5.306;2023-08-24T00:48:21;19.00;95.90
63435;DHT22;68814;50.872;5.306;2023-08-24T00:50:52;18.90;96.10
63435;DHT22;68814;50.872;5.306;2023-08-24T00:53:19;18.90;96.10
63435;DHT22;68814;50.872;5.306;2023-08-24T00:55:45;18.80;96.20
63435;DHT22;68814;50.872;5.306;2023-08-24T00:58:12;18.80;96.20
63435;DHT22;68814;50.872;5.306;2023-08-24T01:00:38;18.80;96.30
63435;DHT22;68814;50.872;5.306;2023-08-24T01:03:04;18.80;96.50
63435;DHT22;68814;50.872;5.306;2023-08-24T01:05:29;18.70;96.40
63435;DHT22;68814;50.872;5.306;2023-08-24T01:07:55;18.70;96.40
63435;DHT22;68814;50.872;5.306;2023-08-24T01:10:22;18.70;96.50
63435;DHT22;68814;50.872;5.306;2023-08-24T01:15:55;18.70;96.80
63435;DHT22;68814;50.872;5.306;2023-08-24T01:18:15;18.60;96.90
63435;DHT22;68814;50.872;5.306;2023-08-24T01:20:43;18.60;96.90
63435;DHT22;68814;50.872;5.306;2023-08-24T01:26:18;18.50;97.20
63435;DHT22;68814;50.872;5.306;2023-08-24T01:28:45;18.50;97.00
63435;DHT22;68814;50.872;5.306;2023-08-24T01:31:14;18.50;97.00
63435;DHT22;68814;50.872;5.306;2023-08-24T01:33:41;18.50;97.00
63435;DHT22;68814;50.872;5.306;2023-08-24T01:36:08;18.60;96.90
63435;DHT22;68814;50.872;5.306;2023-08-24T01:38:34;18.60;96.80
63435;DHT22;68814;50.872;5.306;2023-08-24T01:41:12;18.60;96.90
63435;DHT22;68814;50.872;5.306;2023-08-24T01:43:44;18.60;96.80
63435;DHT22;68814;50.872;5.306;2023-08-24T01:46:14;18.60;96.60
63435;DHT22;68814;50.872;5.306;2023-08-24T01:48:40;18.60;96.50
63435;DHT22;68814;50.872;5.306;2023-08-24T01:51:06;18.60;96.40
63435;DHT22;68814;50.872;5.306;2023-08-24T01:53:33;18.60;96.20
63435;DHT22;68814;50.872;5.306;2023-08-24T01:55:58;18.70;96.40
63435;DHT22;68814;50.872;5.306;2023-08-24T01:58:24;18.70;96.50
63435;DHT22;68814;50.872;5.306;2023-08-24T02:00:50;18.70;96.30
63435;DHT22;68814;50.872;5.306;2023-08-24T02:03:15;18.70;96.30
63435;DHT22;68814;50.872;5.306;2023-08-24T02:05:41;18.70;96.30
63435;DHT22;68814;50.872;5.306;2023-08-24T02:08:06;18.80;96.20
63435;DHT22;68814;50.872;5.306;2023-08-24T02:10:32;18.80;95.90
63435;DHT22;68814;50.872;5.306;2023-08-24T02:12:58;18.80;95.70
63435;DHT22;68814;50.872;5.306;2023-08-24T02:15:23;18.80;95.80
63435;DHT22;68814;50.872;5.306;2023-08-24T02:17:49;18.80;96.10
63435;DHT22;68814;50.872;5.306;2023-08-24T02:20:15;18.90;96.40
63435;DHT22;68814;50.872;5.306;2023-08-24T02:22:40;18.90;96.30
63435;DHT22;68814;50.872;5.306;2023-08-24T02:25:07;18.90;95.60
63435;DHT22;68814;50.872;5.306;2023-08-24T02:27:33;18.90;95.30
63435;DHT22;68814;50.872;5.306;2023-08-24T02:29:59;18.90;96.20
63435;DHT22;68814;50.872;5.306;2023-08-24T02:32:25;18.90;96.00
63435;DHT22;68814;50.872;5.306;2023-08-24T02:34:51;19.00;95.90
63435;DHT22;68814;50.872;5.306;2023-08-24T02:37:17;19.00;95.60
63435;DHT22;68814;50.872;5.306;2023-08-24T02:39:42;19.00;95.50
63435;DHT22;68814;50.872;5.306;2023-08-24T02:42:09;19.00;95.50
63435;DHT22;68814;50.872;5.306;2023-08-24T02:44:35;19.00;95.40
63435;DHT22;68814;50.872;5.306;2023-08-24T02:47:00;18.90;95.50
63435;DHT22;68814;50.872;5.306;2023-08-24T02:49:26;18.90;96.00
63435;DHT22;68814;50.872;5.306;2023-08-24T02:51:52;19.00;96.30
63435;DHT22;68814;50.872;5.306;2023-08-24T02:54:17;19.00;96.40
63435;DHT22;68814;50.872;5.306;2023-08-24T02:56:43;19.00;96.50
63435;DHT22;68814;50.872;5.306;2023-08-24T02:59:09;19.10;96.80
63435;DHT22;68814;50.872;5.306;2023-08-24T03:01:34;19.10;96.80
63435;DHT22;68814;50.872;5.306;2023-08-24T03:04:04;19.10;96.90
63435;DHT22;68814;50.872;5.306;2023-08-24T03:06:30;19.10;97.40
63435;DHT22;68814;50.872;5.306;2023-08-24T03:08:56;19.00;97.70
63435;DHT22;68814;50.872;5.306;2023-08-24T03:11:22;19.00;97.80
63435;DHT22;68814;50.872;5.306;2023-08-24T03:13:47;18.90;97.80
63435;DHT22;68814;50.872;5.306;2023-08-24T03:16:13;18.80;98.10
63435;DHT22;68814;50.872;5.306;2023-08-24T03:18:39;18.80;98.60
63435;DHT22;68814;50.872;5.306;2023-08-24T03:21:04;18.70;98.80
63435;DHT22;68814;50.872;5.306;2023-08-24T03:23:30;18.70;99.20
63435;DHT22;68814;50.872;5.306;2023-08-24T03:25:56;18.60;99.30
63435;DHT22;68814;50.872;5.306;2023-08-24T03:28:22;18.60;99.40
63435;DHT22;68814;50.872;5.306;2023-08-24T03:30:50;18.60;99.60
63435;DHT22;68814;50.872;5.306;2023-08-24T03:33:16;18.60;99.90
63435;DHT22;68814;50.872;5.306;2023-08-24T03:35:41;18.60;99.90
63435;DHT22;68814;50.872;5.306;2023-08-24T03:38:07;18.60;99.90
63435;DHT22;68814;50.872;5.306;2023-08-24T03:40:33;18.60;99.90
63435;DHT22;68814;50.872;5.306;2023-08-24T03:42:59;18.60;99.90
63435;DHT22;68814;50.872;5.306;2023-08-24T03:45:24;18.60;99.90
63435;DHT22;68814;50.872;5.306;2023-08-24T03:47:50;18.60;99.90
63435;DHT22;68814;50.872;5.306;2023-08-24T03:50:16;18.70;99.90
63435;DHT22;68814;50.872;5.306;2023-08-24T03:52:42;18.70;99.90
63435;DHT22;68814;50.872;5.306;2023-08-24T03:55:08;18.70;99.90
63435;DHT22;68814;50.872;5.306;2023-08-24T03:57:34;18.80;99.90
63435;DHT22;68814;50.872;5.306;2023-08-24T04:00:00;18.80;99.90
63435;DHT22;68814;50.872;5.306;2023-08-24T04:02:25;18.80;99.90
63435;DHT22;68814;50.872;5.306;2023-08-24T04:04:52;18.80;99.90
63435;DHT22;68814;50.872;5.306;2023-08-24T04:07:18;18.80;99.90
63435;DHT22;68814;50.872;5.306;2023-08-24T04:09:43;18.90;99.90
63435;DHT22;68814;50.872;5.306;2023-08-24T04:12:11;18.90;99.90
63435;DHT22;68814;50.872;5.306;2023-08-24T04:14:36;18.90;99.90
63435;DHT22;68814;50.872;5.306;2023-08-24T04:17:02;18.90;99.90
63435;DHT22;68814;50.872;5.306;2023-08-24T04:19:28;18.90;99.90
63435;DHT22;68814;50.872;5.306;2023-08-24T04:21:53;18.90;99.90
63435;DHT22;68814;50.872;5.306;2023-08-24T04:24:19;18.90;99.90
63435;DHT22;68814;50.872;5.306;2023-08-24T04:26:45;18.90;99.90
63435;DHT22;68814;50.872;5.306;2023-08-24T04:29:11;18.90;99.90
63435;DHT22;68814;50.872;5.306;2023-08-24T04:31:37;18.80;99.90
63435;DHT22;68814;50.872;5.306;2023-08-24T04:34:05;18.80;99.90
63435;DHT22;68814;50.872;5.306;2023-08-24T04:36:31;18.80;99.90
63435;DHT22;68814;50.872;5.306;2023-08-24T04:38:57;18.70;99.90
63435;DHT22;68814;50.872;5.306;2023-08-24T04:41:22;18.80;99.90
63435;DHT22;68814;50.872;5.306;2023-08-24T04:43:48;18.70;99.90
63435;DHT22;68814;50.872;5.306;2023-08-24T04:46:13;18.70;99.90
63435;DHT22;68814;50.872;5.306;2023-08-24T04:48:39;18.70;99.90
63435;DHT22;68814;50.872;5.306;2023-08-24T04:51:04;18.70;99.90
63435;DHT22;68814;50.872;5.306;2023-08-24T04:53:30;18.70;99.90
63435;DHT22;68814;50.872;5.306;2023-08-24T04:55:56;18.60;99.90
63435;DHT22;68814;50.872;5.306;2023-08-24T04:58:21;18.60;99.90
63435;DHT22;68814;50.872;5.306;2023-08-24T05:00:48;18.60;99.90
63435;DHT22;68814;50.872;5.306;2023-08-24T05:03:14;18.60;99.90
63435;DHT22;68814;50.872;5.306;2023-08-24T05:05:40;18.60;99.80
63435;DHT22;68814;50.872;5.306;2023-08-24T05:08:06;18.60;99.80
63435;DHT22;68814;50.872;5.306;2023-08-24T05:10:35;18.60;99.80
63435;DHT22;68814;50.872;5.306;2023-08-24T05:13:01;18.60;99.80
63435;DHT22;68814;50.872;5.306;2023-08-24T05:15:27;18.60;99.80
63435;DHT22;68814;50.872;5.306;2023-08-24T05:17:53;18.60;99.90
63435;DHT22;68814;50.872;5.306;2023-08-24T05:20:20;18.60;99.90
63435;DHT22;68814;50.872;5.306;2023-08-24T05:22:47;18.60;99.90
63435;DHT22;68814;50.872;5.306;2023-08-24T05:25:13;18.50;99.90
63435;DHT22;68814;50.872;5.306;2023-08-24T05:27:39;18.50;99.90
63435;DHT22;68814;50.872;5.306;2023-08-24T05:30:06;18.50;99.90
63435;DHT22;68814;50.872;5.306;2023-08-24T05:32:31;18.50;99.90
63435;DHT22;68814;50.872;5.306;2023-08-24T05:34:57;18.50;99.90
63435;DHT22;68814;50.872;5.306;2023-08-24T05:37:24;18.50;99.90
63435;DHT22;68814;50.872;5.306;2023-08-24T05:39:50;18.50;99.90
63435;DHT22;68814;50.872;5.306;2023-08-24T05:42:15;18.60;99.90
63435;DHT22;68814;50.872;5.306;2023-08-24T05:44:41;18.60;99.90
63435;DHT22;68814;50.872;5.306;2023-08-24T05:47:07;18.70;99.90
63435;DHT22;68814;50.872;5.306;2023-08-24T05:49:32;18.70;99.90
63435;DHT22;68814;50.872;5.306;2023-08-24T05:51:58;18.70;99.90
63435;DHT22;68814;50.872;5.306;2023-08-24T05:54:24;18.80;99.90
63435;DHT22;68814;50.872;5.306;2023-08-24T05:56:49;18.90;99.90
63435;DHT22;68814;50.872;5.306;2023-08-24T05:59:15;18.90;99.90
63435;DHT22;68814;50.872;5.306;2023-08-24T06:01:41;19.00;99.90
63435;DHT22;68814;50.872;5.306;2023-08-24T06:04:08;19.00;99.90
63435;DHT22;68814;50.872;5.306;2023-08-24T06:06:34;19.10;99.90
63435;DHT22;68814;50.872;5.306;2023-08-24T06:09:00;19.20;99.90
63435;DHT22;68814;50.872;5.306;2023-08-24T06:11:26;19.20;99.90
63435;DHT22;68814;50.872;5.306;2023-08-24T06:13:51;19.30;99.90
63435;DHT22;68814;50.872;5.306;2023-08-24T06:16:20;19.40;99.90
63435;DHT22;68814;50.872;5.306;2023-08-24T06:18:46;19.50;99.90
63435;DHT22;68814;50.872;5.306;2023-08-24T06:21:12;19.50;99.90
63435;DHT22;68814;50.872;5.306;2023-08-24T06:23:38;19.60;99.90
63435;DHT22;68814;50.872;5.306;2023-08-24T06:26:04;19.70;99.90
63435;DHT22;68814;50.872;5.306;2023-08-24T06:28:30;19.80;99.90
63435;DHT22;68814;50.872;5.306;2023-08-24T06:30:56;19.90;99.90
63435;DHT22;68814;50.872;5.306;2023-08-24T06:33:27;20.00;99.90
63435;DHT22;68814;50.872;5.306;2023-08-24T06:35:56;20.00;99.90
63435;DHT22;68814;50.872;5.306;2023-08-24T06:38:22;20.20;99.90
63435;DHT22;68814;50.872;5.306;2023-08-24T06:40:48;20.30;99.90
63435;DHT22;68814;50.872;5.306;2023-08-24T06:43:14;20.30;99.90
63435;DHT22;68814;50.872;5.306;2023-08-24T06:45:40;20.50;99.90
63435;DHT22;68814;50.872;5.306;2023-08-24T06:48:06;20.60;99.90
63435;DHT22;68814;50.872;5.306;2023-08-24T06:50:33;20.70;99.90
63435;DHT22;68814;50.872;5.306;2023-08-24T06:52:58;20.90;99.90
63435;DHT22;68814;50.872;5.306;2023-08-24T06:55:26;21.00;99.90
63435;DHT22;68814;50.872;5.306;2023-08-24T06:57:52;21.20;99.90
63435;DHT22;68814;50.872;5.306;2023-08-24T07:00:19;21.30;99.90
63435;DHT22;68814;50.872;5.306;2023-08-24T07:02:46;21.40;99.90
63435;DHT22;68814;50.872;5.306;2023-08-24T07:05:15;21.60;99.90
63435;DHT22;68814;50.872;5.306;2023-08-24T07:07:45;21.70;99.90
63435;DHT22;68814;50.872;5.306;2023-08-24T07:10:11;21.90;99.90
63435;DHT22;68814;50.872;5.306;2023-08-24T07:12:37;22.00;99.90
63435;DHT22;68814;50.872;5.306;2023-08-24T07:15:06;22.20;99.90
63435;DHT22;68814;50.872;5.306;2023-08-24T07:17:32;22.40;99.90
63435;DHT22;68814;50.872;5.306;2023-08-24T07:19:58;22.50;99.30
63435;DHT22;68814;50.872;5.306;2023-08-24T07:22:24;22.60;99.00
63435;DHT22;68814;50.872;5.306;2023-08-24T07:24:52;22.70;98.70
63435;DHT22;68814;50.872;5.306;2023-08-24T07:27:18;22.80;99.10
63435;DHT22;68814;50.872;5.306;2023-08-24T07:29:44;23.00;98.70
63435;DHT22;68814;50.872;5.306;2023-08-24T07:32:10;23.10;98.00
63435;DHT22;68814;50.872;5.306;2023-08-24T07:34:36;23.30;97.40
63435;DHT22;68814;50.872;5.306;2023-08-24T07:37:01;23.40;97.70
63435;DHT22;68814;50.872;5.306;2023-08-24T07:39:27;23.50;96.70
63435;DHT22;68814;50.872;5.306;2023-08-24T07:41:53;23.60;96.80
63435;DHT22;68814;50.872;5.306;2023-08-24T07:44:19;23.80;96.70
63435;DHT22;68814;50.872;5.306;2023-08-24T07:46:44;23.90;96.20
63435;DHT22;68814;50.872;5.306;2023-08-24T07:49:10;24.10;96.10
63435;DHT22;68814;50.872;5.306;2023-08-24T07:51:36;24.20;96.10
63435;DHT22;68814;50.872;5.306;2023-08-24T07:54:02;24.40;95.90
63435;DHT22;68814;50.872;5.306;2023-08-24T07:56:30;24.50;95.20
63435;DHT22;68814;50.872;5.306;2023-08-24T07:58:55;24.70;94.80
63435;DHT22;68814;50.872;5.306;2023-08-24T08:01:21;24.80;94.20
63435;DHT22;68814;50.872;5.306;2023-08-24T08:03:47;24.90;92.40
63435;DHT22;68814;50.872;5.306;2023-08-24T08:06:12;24.90;92.50
63435;DHT22;68814;50.872;5.306;2023-08-24T08:08:39;25.00;93.10
63435;DHT22;68814;50.872;5.306;2023-08-24T08:11:04;25.10;93.30
63435;DHT22;68814;50.872;5.306;2023-08-24T08:13:30;25.30;93.60
63435;DHT22;68814;50.872;5.306;2023-08-24T08:16:06;25.50;92.60
63435;DHT22;68814;50.872;5.306;2023-08-24T08:18:34;25.70;93.50
63435;DHT22;68814;50.872;5.306;2023-08-24T08:20:59;25.90;93.70
63435;DHT22;68814;50.872;5.306;2023-08-24T08:23:25;26.20;92.90
63435;DHT22;68814;50.872;5.306;2023-08-24T08:25:51;26.30;92.90
63435;DHT22;68814;50.872;5.306;2023-08-24T08:28:17;26.50;92.80
63435;DHT22;68814;50.872;5.306;2023-08-24T08:30:48;26.70;91.30
63435;DHT22;68814;50.872;5.306;2023-08-24T08:33:14;26.80;91.80
63435;DHT22;68814;50.872;5.306;2023-08-24T08:35:42;27.00;91.10
63435;DHT22;68814;50.872;5.306;2023-08-24T08:38:08;27.20;91.50
63435;DHT22;68814;50.872;5.306;2023-08-24T08:40:37;27.30;90.80
63435;DHT22;68814;50.872;5.306;2023-08-24T08:43:03;27.50;90.50
63435;DHT22;68814;50.872;5.306;2023-08-24T08:45:29;27.60;89.50
63435;DHT22;68814;50.872;5.306;2023-08-24T08:47:59;27.80;89.70
63435;DHT22;68814;50.872;5.306;2023-08-24T08:50:25;27.90;88.20
63435;DHT22;68814;50.872;5.306;2023-08-24T08:52:51;28.00;88.40
63435;DHT22;68814;50.872;5.306;2023-08-24T08:55:17;28.10;88.40
63435;DHT22;68814;50.872;5.306;2023-08-24T08:57:43;28.30;88.30
63435;DHT22;68814;50.872;5.306;2023-08-24T09:00:11;28.50;87.70
63435;DHT22;68814;50.872;5.306;2023-08-24T09:02:42;28.60;87.10
63435;DHT22;68814;50.872;5.306;2023-08-24T09:05:09;28.70;84.40
63435;DHT22;68814;50.872;5.306;2023-08-24T09:07:35;28.80;82.90
63435;DHT22;68814;50.872;5.306;2023-08-24T09:10:02;28.90;81.70
63435;DHT22;68814;50.872;5.306;2023-08-24T09:12:33;28.90;81.70
63435;DHT22;68814;50.872;5.306;2023-08-24T09:14:59;29.00;83.40
63435;DHT22;68814;50.872;5.306;2023-08-24T09:17:24;29.20;83.00
63435;DHT22;68814;50.872;5.306;2023-08-24T09:19:53;29.30;80.40
63435;DHT22;68814;50.872;5.306;2023-08-24T09:22:19;29.20;80.20
63435;DHT22;68814;50.872;5.306;2023-08-24T09:24:45;29.20;79.10
63435;DHT22;68814;50.872;5.306;2023-08-24T09:27:21;29.20;79.20
63435;DHT22;68814;50.872;5.306;2023-08-24T09:29:51;29.20;79.10
63435;DHT22;68814;50.872;5.306;2023-08-24T09:32:24;29.30;79.30
63435;DHT22;68814;50.872;5.306;2023-08-24T09:34:50;29.30;78.00
63435;DHT22;68814;50.872;5.306;2023-08-24T09:37:16;29.30;78.10
63435;DHT22;68814;50.872;5.306;2023-08-24T09:39:42;29.20;78.40
63435;DHT22;68814;50.872;5.306;2023-08-24T09:42:08;29.20;76.40
63435;DHT22;68814;50.872;5.306;2023-08-24T09:44:34;29.10;78.20
63435;DHT22;68814;50.872;5.306;2023-08-24T09:46:59;29.10;79.30
63435;DHT22;68814;50.872;5.306;2023-08-24T09:49:28;29.10;80.00
63435;DHT22;68814;50.872;5.306;2023-08-24T09:51:57;29.10;78.40
63435;DHT22;68814;50.872;5.306;2023-08-24T09:54:26;28.90;77.80
63435;DHT22;68814;50.872;5.306;2023-08-24T09:56:55;28.90;78.90
63435;DHT22;68814;50.872;5.306;2023-08-24T09:59:24;28.70;77.90
63435;DHT22;68814;50.872;5.306;2023-08-24T10:01:52;28.70;79.70
63435;DHT22;68814;50.872;5.306;2023-08-24T10:04:24;28.60;80.10
63435;DHT22;68814;50.872;5.306;2023-08-24T10:07:08;28.50;79.20
63435;DHT22;68814;50.872;5.306;2023-08-24T10:12:23;28.30;80.40
63435;DHT22;68814;50.872;5.306;2023-08-24T10:15:00;28.20;81.40
63435;DHT22;68814;50.872;5.306;2023-08-24T10:17:32;28.00;82.30
63435;DHT22;68814;50.872;5.306;2023-08-24T10:19:58;27.80;84.60
63435;DHT22;68814;50.872;5.306;2023-08-24T10:22:31;27.60;85.60
63435;DHT22;68814;50.872;5.306;2023-08-24T10:24:57;27.30;86.60
63435;DHT22;68814;50.872;5.306;2023-08-24T10:27:27;27.00;88.10
63435;DHT22;68814;50.872;5.306;2023-08-24T10:29:52;26.50;89.70
63435;DHT22;68814;50.872;5.306;2023-08-24T10:32:20;26.20;90.60
63435;DHT22;68814;50.872;5.306;2023-08-24T10:34:46;25.90;91.20
63435;DHT22;68814;50.872;5.306;2023-08-24T10:37:12;25.60;91.70
63435;DHT22;68814;50.872;5.306;2023-08-24T10:39:44;25.40;92.20
63435;DHT22;68814;50.872;5.306;2023-08-24T10:42:11;25.30;92.40
63435;DHT22;68814;50.872;5.306;2023-08-24T10:44:39;25.10;92.40
63435;DHT22;68814;50.872;5.306;2023-08-24T10:47:21;24.90;92.60
63435;DHT22;68814;50.872;5.306;2023-08-24T10:49:58;24.60;93.10
63435;DHT22;68814;50.872;5.306;2023-08-24T10:52:34;24.40;93.70
63435;DHT22;68814;50.872;5.306;2023-08-24T10:55:03;24.20;94.30
63435;DHT22;68814;50.872;5.306;2023-08-24T10:57:38;24.00;94.90
63435;DHT22;68814;50.872;5.306;2023-08-24T11:08:00;23.70;96.40
63435;DHT22;68814;50.872;5.306;2023-08-24T11:10:46;23.60;96.50
63435;DHT22;68814;50.872;5.306;2023-08-24T11:13:15;23.70;96.60
63435;DHT22;68814;50.872;5.306;2023-08-24T11:15:48;23.70;96.50
63435;DHT22;68814;50.872;5.306;2023-08-24T11:18:27;23.70;97.10
63435;DHT22;68814;50.872;5.306;2023-08-24T11:21:00;23.80;97.20
63435;DHT22;68814;50.872;5.306;2023-08-24T11:23:28;23.80;97.10
63435;DHT22;68814;50.872;5.306;2023-08-24T11:25:55;23.90;97.30
63435;DHT22;68814;50.872;5.306;2023-08-24T11:28:26;24.00;97.40
63435;DHT22;68814;50.872;5.306;2023-08-24T11:30:53;24.10;97.60
63435;DHT22;68814;50.872;5.306;2023-08-24T11:33:37;24.10;97.50
63435;DHT22;68814;50.872;5.306;2023-08-24T11:36:03;24.20;97.70
63435;DHT22;68814;50.872;5.306;2023-08-24T11:38:40;24.20;97.70
63435;DHT22;68814;50.872;5.306;2023-08-24T11:41:13;24.30;97.60
63435;DHT22;68814;50.872;5.306;2023-08-24T11:43:39;24.30;97.90
63435;DHT22;68814;50.872;5.306;2023-08-24T11:46:05;24.30;97.70
63435;DHT22;68814;50.872;5.306;2023-08-24T11:48:31;24.30;97.60
63435;DHT22;68814;50.872;5.306;2023-08-24T11:50:58;24.50;97.40
63435;DHT22;68814;50.872;5.306;2023-08-24T11:53:24;24.50;97.40
63435;DHT22;68814;50.872;5.306;2023-08-24T11:55:55;24.60;97.30
63435;DHT22;68814;50.872;5.306;2023-08-24T11:58:20;24.70;97.50
63435;DHT22;68814;50.872;5.306;2023-08-24T12:00:47;24.80;96.90
63435;DHT22;68814;50.872;5.306;2023-08-24T12:03:13;24.90;96.60
63435;DHT22;68814;50.872;5.306;2023-08-24T12:05:39;25.00;96.50
63435;DHT22;68814;50.872;5.306;2023-08-24T12:08:05;25.10;94.70
63435;DHT22;68814;50.872;5.306;2023-08-24T12:10:32;25.10;95.70
63435;DHT22;68814;50.872;5.306;2023-08-24T12:13:05;25.10;94.70
63435;DHT22;68814;50.872;5.306;2023-08-24T12:15:34;25.20;95.60
63435;DHT22;68814;50.872;5.306;2023-08-24T12:18:13;25.20;93.80
63435;DHT22;68814;50.872;5.306;2023-08-24T12:20:43;25.10;93.90
63435;DHT22;68814;50.872;5.306;2023-08-24T12:23:10;25.10;94.10
63435;DHT22;68814;50.872;5.306;2023-08-24T12:25:42;25.00;94.00
63435;DHT22;68814;50.872;5.306;2023-08-24T12:28:13;24.90;94.00
63435;DHT22;68814;50.872;5.306;2023-08-24T12:30:49;24.80;94.10
63435;DHT22;68814;50.872;5.306;2023-08-24T12:33:22;24.60;94.90
63435;DHT22;68814;50.872;5.306;2023-08-24T12:35:49;24.50;94.90
63435;DHT22;68814;50.872;5.306;2023-08-24T12:38:14;24.30;94.80
63435;DHT22;68814;50.872;5.306;2023-08-24T12:40:40;24.10;95.10
63435;DHT22;68814;50.872;5.306;2023-08-24T12:43:06;23.90;95.20
63435;DHT22;68814;50.872;5.306;2023-08-24T12:45:31;23.80;95.50
63435;DHT22;68814;50.872;5.306;2023-08-24T12:47:57;23.70;96.00
63435;DHT22;68814;50.872;5.306;2023-08-24T12:50:23;23.50;96.50
63435;DHT22;68814;50.872;5.306;2023-08-24T12:52:49;23.40;97.10
63435;DHT22;68814;50.872;5.306;2023-08-24T12:55:15;23.30;96.90
63435;DHT22;68814;50.872;5.306;2023-08-24T12:57:41;23.20;97.20
63435;DHT22;68814;50.872;5.306;2023-08-24T13:00:07;23.20;97.10
63435;DHT22;68814;50.872;5.306;2023-08-24T13:02:34;23.20;97.30
63435;DHT22;68814;50.872;5.306;2023-08-24T13:05:09;23.20;97.10
63435;DHT22;68814;50.872;5.306;2023-08-24T13:07:34;23.10;97.40
63435;DHT22;68814;50.872;5.306;2023-08-24T13:10:00;23.10;97.50
63435;DHT22;68814;50.872;5.306;2023-08-24T13:12:26;23.00;97.80
63435;DHT22;68814;50.872;5.306;2023-08-24T13:14:51;22.90;97.60
63435;DHT22;68814;50.872;5.306;2023-08-24T13:17:17;22.90;98.10
63435;DHT22;68814;50.872;5.306;2023-08-24T13:19:43;22.80;97.70
63435;DHT22;68814;50.872;5.306;2023-08-24T13:22:10;22.70;97.80
63435;DHT22;68814;50.872;5.306;2023-08-24T13:24:36;22.70;97.90
63435;DHT22;68814;50.872;5.306;2023-08-24T13:27:02;22.60;97.90
63435;DHT22;68814;50.872;5.306;2023-08-24T13:29:28;22.50;98.00
63435;DHT22;68814;50.872;5.306;2023-08-24T13:31:54;22.40;98.20
63435;DHT22;68814;50.872;5.306;2023-08-24T13:34:20;22.30;98.70
63435;DHT22;68814;50.872;5.306;2023-08-24T13:36:45;22.10;98.90
63435;DHT22;68814;50.872;5.306;2023-08-24T13:39:11;22.00;99.20
63435;DHT22;68814;50.872;5.306;2023-08-24T13:41:37;21.90;99.40
63435;DHT22;68814;50.872;5.306;2023-08-24T13:44:03;21.80;99.60
63435;DHT22;68814;50.872;5.306;2023-08-24T13:46:28;21.70;99.90
63435;DHT22;68814;50.872;5.306;2023-08-24T13:48:54;21.60;99.90
63435;DHT22;68814;50.872;5.306;2023-08-24T13:51:20;21.40;99.90
63435;DHT22;68814;50.872;5.306;2023-08-24T13:53:47;21.30;99.90
63435;DHT22;68814;50.872;5.306;2023-08-24T13:56:13;21.20;99.90
63435;DHT22;68814;50.872;5.306;2023-08-24T13:58:38;21.10;99.90
63435;DHT22;68814;50.872;5.306;2023-08-24T14:01:04;21.10;99.90
63435;DHT22;68814;50.872;5.306;2023-08-24T14:03:30;21.00;99.90
63435;DHT22;68814;50.872;5.306;2023-08-24T14:05:56;20.90;99.90
63435;DHT22;68814;50.872;5.306;2023-08-24T14:08:22;20.80;99.90
63435;DHT22;68814;50.872;5.306;2023-08-24T14:10:48;20.80;99.90
63435;DHT22;68814;50.872;5.306;2023-08-24T14:13:14;20.70;99.90
63435;DHT22;68814;50.872;5.306;2023-08-24T14:15:41;20.70;99.90
63435;DHT22;68814;50.872;5.306;2023-08-24T14:18:06;20.60;99.90
63435;DHT22;68814;50.872;5.306;2023-08-24T14:20:33;20.60;99.90
63435;DHT22;68814;50.872;5.306;2023-08-24T14:22:59;20.60;99.90
63435;DHT22;68814;50.872;5.306;2023-08-24T14:25:24;20.50;99.90
63435;DHT22;68814;50.872;5.306;2023-08-24T14:27:50;20.50;99.90
63435;DHT22;68814;50.872;5.306;2023-08-24T14:30:15;20.50;99.90
63435;DHT22;68814;50.872;5.306;2023-08-24T14:32:41;20.50;99.90
63435;DHT22;68814;50.872;5.306;2023-08-24T14:35:08;20.40;99.90
63435;DHT22;68814;50.872;5.306;2023-08-24T14:37:33;20.40;99.90
63435;DHT22;68814;50.872;5.306;2023-08-24T14:39:59;20.40;99.90
63435;DHT22;68814;50.872;5.306;2023-08-24T14:42:25;20.40;99.90
63435;DHT22;68814;50.872;5.306;2023-08-24T14:44:51;20.40;99.90
63435;DHT22;68814;50.872;5.306;2023-08-24T14:47:16;20.40;99.90
63435;DHT22;68814;50.872;5.306;2023-08-24T14:49:42;20.40;99.90
63435;DHT22;68814;50.872;5.306;2023-08-24T14:52:08;20.40;99.90
63435;DHT22;68814;50.872;5.306;2023-08-24T14:54:33;20.40;99.90
63435;DHT22;68814;50.872;5.306;2023-08-24T14:56:59;20.40;99.90
63435;DHT22;68814;50.872;5.306;2023-08-24T14:59:25;20.40;99.90
63435;DHT22;68814;50.872;5.306;2023-08-24T15:01:51;20.50;99.90
63435;DHT22;68814;50.872;5.306;2023-08-24T15:04:18;20.50;99.90
63435;DHT22;68814;50.872;5.306;2023-08-24T15:06:44;20.60;99.90
63435;DHT22;68814;50.872;5.306;2023-08-24T15:09:09;20.60;99.90
63435;DHT22;68814;50.872;5.306;2023-08-24T15:11:35;20.60;99.90
63435;DHT22;68814;50.872;5.306;2023-08-24T15:14:01;20.60;99.90
63435;DHT22;68814;50.872;5.306;2023-08-24T15:16:26;20.70;99.90
63435;DHT22;68814;50.872;5.306;2023-08-24T15:18:52;20.80;99.90
63435;DHT22;68814;50.872;5.306;2023-08-24T15:21:18;20.80;99.90
63435;DHT22;68814;50.872;5.306;2023-08-24T15:23:43;20.90;99.90
63435;DHT22;68814;50.872;5.306;2023-08-24T15:26:09;20.90;99.90
63435;DHT22;68814;50.872;5.306;2023-08-24T15:29:13;21.00;99.90
63435;DHT22;68814;50.872;5.306;2023-08-24T15:31:44;21.10;99.90
63435;DHT22;68814;50.872;5.306;2023-08-24T15:34:10;21.20;99.90
63435;DHT22;68814;50.872;5.306;2023-08-24T15:36:36;21.30;99.90
63435;DHT22;68814;50.872;5.306;2023-08-24T15:39:02;21.40;99.90
63435;DHT22;68814;50.872;5.306;2023-08-24T15:41:29;21.40;99.90
63435;DHT22;68814;50.872;5.306;2023-08-24T15:43:55;21.50;99.90
63435;DHT22;68814;50.872;5.306;2023-08-24T15:46:20;21.60;99.50